EWG59Q EKCH-EDDM
Flight info
| Callsign | EWG59Q |
|---|---|
| Flight time | 1h 15m |
| Altitude | 37000 |
| Route | SALLO M44 KOGIM DCT MAREM/N0452F340 DCT VESUB T106 TUSTO T108 LANDU LANDU2A |
| Aircraft | A320/M-SDE3FGHIRWY/LB1 |
Departure
| Time | 2026-05-06 11:36 |
|---|---|
| Airport | Copenhagen Kastrup Airport (EKCH) |
Arrival
| Time | 2026-05-06 12:52 |
|---|---|
| Airport | Munich Airport (EDDM) |
| Time | Latitude | Longitude | Altitude | Speed | Heading |
|---|---|---|---|---|---|
| 2026-05-06 11:09 | 55.62762 | 12.64309 | 17 ft | 0 kts | 296° |
| 2026-05-06 11:26 | 55.62753 | 12.64339 | 18 ft | 3 kts | 298° |
| 2026-05-06 11:26 | 55.62745 | 12.64364 | 20 ft | 2 kts | 321° |
| 2026-05-06 11:26 | 55.62735 | 12.64372 | 21 ft | 2 kts | 29° |
| 2026-05-06 11:27 | 55.62720 | 12.64358 | 22 ft | 3 kts | 31° |
| 2026-05-06 11:27 | 55.62706 | 12.64347 | 20 ft | 2 kts | 28° |
| 2026-05-06 11:27 | 55.62692 | 12.64335 | 22 ft | 2 kts | 24° |
| 2026-05-06 11:27 | 55.62678 | 12.64324 | 19 ft | 2 kts | 19° |
| 2026-05-06 11:28 | 55.62665 | 12.64314 | 19 ft | 3 kts | 17° |
| 2026-05-06 11:28 | 55.62650 | 12.64304 | 18 ft | 2 kts | 18° |
| 2026-05-06 11:28 | 55.62633 | 12.64294 | 20 ft | 3 kts | 24° |
| 2026-05-06 11:28 | 55.62623 | 12.64281 | 22 ft | 2 kts | 30° |
| 2026-05-06 11:29 | 55.62610 | 12.64266 | 19 ft | 2 kts | 33° |
| 2026-05-06 11:29 | 55.62599 | 12.64254 | 22 ft | 2 kts | 69° |
| 2026-05-06 11:29 | 55.62595 | 12.64230 | 19 ft | 2 kts | 100° |
| 2026-05-06 11:29 | 55.62598 | 12.64203 | 21 ft | 2 kts | 115° |
| 2026-05-06 11:30 | 55.62621 | 12.64132 | 21 ft | 1 kts | 123° |
| 2026-05-06 11:31 | 55.62580 | 12.64210 | 18 ft | 12 kts | 173° |
| 2026-05-06 11:31 | 55.62511 | 12.64244 | 17 ft | 10 kts | 137° |
| 2026-05-06 11:31 | 55.62446 | 12.64387 | 17 ft | 20 kts | 128° |
| 2026-05-06 11:32 | 55.62348 | 12.64638 | 18 ft | 29 kts | 125° |
| 2026-05-06 11:32 | 55.62260 | 12.64875 | 18 ft | 11 kts | 123° |
| 2026-05-06 11:32 | 55.62196 | 12.65044 | 17 ft | 23 kts | 125° |
| 2026-05-06 11:32 | 55.62062 | 12.65006 | 18 ft | 28 kts | 224° |
| 2026-05-06 11:33 | 55.61861 | 12.64780 | 17 ft | 36 kts | 213° |
| 2026-05-06 11:33 | 55.61650 | 12.64537 | 17 ft | 36 kts | 212° |
| 2026-05-06 11:33 | 55.61440 | 12.64298 | 18 ft | 36 kts | 213° |
| 2026-05-06 11:33 | 55.61231 | 12.64057 | 19 ft | 36 kts | 213° |
| 2026-05-06 11:34 | 55.61023 | 12.63811 | 17 ft | 36 kts | 213° |
| 2026-05-06 11:34 | 55.60801 | 12.63565 | 19 ft | 41 kts | 213° |
| 2026-05-06 11:34 | 55.60584 | 12.63286 | 17 ft | 29 kts | 225° |
| 2026-05-06 11:34 | 55.60444 | 12.63309 | 17 ft | 23 kts | 137° |
| 2026-05-06 11:35 | 55.60429 | 12.63478 | 17 ft | 9 kts | 36° |
| 2026-05-06 11:35 | 55.60462 | 12.63542 | 17 ft | 0 kts | 44° |
| 2026-05-06 11:36 | 55.60641 | 12.63820 | 20 ft | 80 kts | 41° |
| 2026-05-06 11:36 | 55.61286 | 12.64816 | 20 ft | 162 kts | 41° |
| 2026-05-06 11:36 | 55.62201 | 12.66224 | 661 ft | 175 kts | 40° |
| 2026-05-06 11:37 | 55.63133 | 12.67654 | 1630 ft | 180 kts | 40° |
| 2026-05-06 11:37 | 55.64100 | 12.69152 | 2379 ft | 191 kts | 40° |
| 2026-05-06 11:37 | 55.65149 | 12.70779 | 2761 ft | 211 kts | 40° |
| 2026-05-06 11:37 | 55.66318 | 12.72547 | 3145 ft | 232 kts | 40° |
| 2026-05-06 11:38 | 55.67613 | 12.74475 | 3592 ft | 255 kts | 39° |
| 2026-05-06 11:38 | 55.68832 | 12.76841 | 4315 ft | 266 kts | 59° |
| 2026-05-06 11:38 | 55.69480 | 12.79923 | 5196 ft | 271 kts | 81° |
| 2026-05-06 11:38 | 55.69415 | 12.83264 | 6094 ft | 275 kts | 104° |
| 2026-05-06 11:39 | 55.68608 | 12.86327 | 6978 ft | 278 kts | 128° |
| 2026-05-06 11:39 | 55.67172 | 12.88616 | 7845 ft | 281 kts | 151° |
| 2026-05-06 11:39 | 55.65359 | 12.89935 | 8715 ft | 284 kts | 161° |
| 2026-05-06 11:39 | 55.63457 | 12.90929 | 9557 ft | 287 kts | 171° |
| 2026-05-06 11:40 | 55.61471 | 12.91508 | 10301 ft | 295 kts | 167° |
| 2026-05-06 11:40 | 55.59430 | 12.92607 | 10596 ft | 319 kts | 160° |
| 2026-05-06 11:40 | 55.57293 | 12.94112 | 10858 ft | 341 kts | 157° |
| 2026-05-06 11:40 | 55.55079 | 12.95807 | 11437 ft | 351 kts | 156° |
| 2026-05-06 11:41 | 55.52824 | 12.97531 | 12168 ft | 355 kts | 157° |
| 2026-05-06 11:41 | 55.50530 | 12.99231 | 12881 ft | 359 kts | 158° |
| 2026-05-06 11:41 | 55.48202 | 13.00890 | 13592 ft | 363 kts | 159° |
| 2026-05-06 11:41 | 55.45869 | 13.02502 | 14273 ft | 367 kts | 159° |
| 2026-05-06 11:42 | 55.43442 | 13.04134 | 14941 ft | 370 kts | 159° |
| 2026-05-06 11:42 | 55.41059 | 13.05719 | 15595 ft | 374 kts | 159° |
| 2026-05-06 11:42 | 55.38614 | 13.07344 | 16221 ft | 377 kts | 159° |
| 2026-05-06 11:42 | 55.36141 | 13.08990 | 16843 ft | 381 kts | 159° |
| 2026-05-06 11:43 | 55.33655 | 13.10661 | 17448 ft | 384 kts | 159° |
| 2026-05-06 11:43 | 55.31147 | 13.12358 | 18043 ft | 388 kts | 159° |
| 2026-05-06 11:43 | 55.28617 | 13.14045 | 18626 ft | 391 kts | 161° |
| 2026-05-06 11:44 | 55.23189 | 13.15285 | 19761 ft | 398 kts | 176° |
| 2026-05-06 11:44 | 55.20424 | 13.15604 | 20327 ft | 401 kts | 176° |
| 2026-05-06 11:44 | 55.17630 | 13.15922 | 20869 ft | 404 kts | 176° |
| 2026-05-06 11:44 | 55.14806 | 13.16242 | 21390 ft | 407 kts | 176° |
| 2026-05-06 11:45 | 55.12925 | 13.16456 | 21728 ft | 409 kts | 176° |
| 2026-05-06 11:45 | 55.10072 | 13.16782 | 22212 ft | 412 kts | 176° |
| 2026-05-06 11:45 | 55.07201 | 13.17115 | 22684 ft | 415 kts | 176° |
| 2026-05-06 11:45 | 55.04306 | 13.17450 | 23138 ft | 418 kts | 176° |
| 2026-05-06 11:46 | 55.01395 | 13.17788 | 23575 ft | 421 kts | 176° |
| 2026-05-06 11:46 | 54.98466 | 13.18133 | 24003 ft | 424 kts | 176° |
| 2026-05-06 11:46 | 54.95515 | 13.18478 | 24412 ft | 426 kts | 176° |
| 2026-05-06 11:46 | 54.92543 | 13.18823 | 24804 ft | 429 kts | 176° |
| 2026-05-06 11:47 | 54.89563 | 13.19171 | 25185 ft | 431 kts | 176° |
| 2026-05-06 11:47 | 54.86559 | 13.19519 | 25556 ft | 434 kts | 176° |
| 2026-05-06 11:47 | 54.83539 | 13.19865 | 25923 ft | 436 kts | 176° |
| 2026-05-06 11:47 | 54.80505 | 13.20211 | 26278 ft | 438 kts | 176° |
| 2026-05-06 11:48 | 54.77451 | 13.20558 | 26623 ft | 441 kts | 176° |
| 2026-05-06 11:48 | 54.74387 | 13.20905 | 26947 ft | 443 kts | 176° |
| 2026-05-06 11:48 | 54.71294 | 13.21253 | 27280 ft | 445 kts | 176° |
| 2026-05-06 11:48 | 54.68197 | 13.21602 | 27598 ft | 447 kts | 176° |
| 2026-05-06 11:49 | 54.65084 | 13.21953 | 27900 ft | 449 kts | 176° |
| 2026-05-06 11:49 | 54.61958 | 13.22310 | 28196 ft | 451 kts | 176° |
| 2026-05-06 11:49 | 54.58821 | 13.22669 | 28476 ft | 453 kts | 176° |
| 2026-05-06 11:49 | 54.55666 | 13.23029 | 28751 ft | 455 kts | 176° |
| 2026-05-06 11:50 | 54.52500 | 13.23389 | 29009 ft | 457 kts | 176° |
| 2026-05-06 11:50 | 54.49320 | 13.23747 | 29261 ft | 459 kts | 176° |
| 2026-05-06 11:50 | 54.46128 | 13.24110 | 29503 ft | 460 kts | 176° |
| 2026-05-06 11:50 | 54.42928 | 13.24477 | 29734 ft | 462 kts | 176° |
| 2026-05-06 11:51 | 54.39714 | 13.24846 | 29969 ft | 463 kts | 176° |
| 2026-05-06 11:51 | 54.36506 | 13.25210 | 30275 ft | 462 kts | 176° |
| 2026-05-06 11:51 | 54.33296 | 13.25567 | 30575 ft | 461 kts | 176° |
| 2026-05-06 11:51 | 54.30094 | 13.25920 | 30867 ft | 461 kts | 176° |
| 2026-05-06 11:52 | 54.26942 | 13.26270 | 31162 ft | 460 kts | 176° |
| 2026-05-06 11:52 | 54.23748 | 13.26626 | 31457 ft | 459 kts | 176° |
| 2026-05-06 11:52 | 54.20557 | 13.26982 | 31749 ft | 459 kts | 176° |
| 2026-05-06 11:52 | 54.17373 | 13.27336 | 32036 ft | 458 kts | 176° |
| 2026-05-06 11:53 | 54.14190 | 13.27688 | 32322 ft | 458 kts | 176° |
| 2026-05-06 11:53 | 54.11011 | 13.28040 | 32602 ft | 457 kts | 176° |
| 2026-05-06 11:53 | 54.07839 | 13.28388 | 32879 ft | 457 kts | 176° |
| 2026-05-06 11:53 | 54.04667 | 13.28739 | 33159 ft | 456 kts | 176° |
| 2026-05-06 11:54 | 54.01501 | 13.29088 | 33422 ft | 456 kts | 176° |
| 2026-05-06 11:54 | 53.98338 | 13.29437 | 33692 ft | 455 kts | 176° |
| 2026-05-06 11:54 | 53.95177 | 13.29789 | 33968 ft | 455 kts | 176° |
| 2026-05-06 11:54 | 53.92022 | 13.30141 | 34230 ft | 454 kts | 176° |
| 2026-05-06 11:55 | 53.88871 | 13.30489 | 34498 ft | 454 kts | 176° |
| 2026-05-06 11:55 | 53.85722 | 13.30837 | 34765 ft | 453 kts | 176° |
| 2026-05-06 11:55 | 53.82576 | 13.31184 | 35021 ft | 453 kts | 176° |
| 2026-05-06 11:55 | 53.79432 | 13.31531 | 35278 ft | 452 kts | 176° |
| 2026-05-06 11:56 | 53.76291 | 13.31873 | 35498 ft | 452 kts | 176° |
| 2026-05-06 11:56 | 53.73158 | 13.32210 | 35733 ft | 451 kts | 176° |
| 2026-05-06 11:56 | 53.70070 | 13.32542 | 35947 ft | 451 kts | 176° |
| 2026-05-06 11:56 | 53.66940 | 13.32878 | 36158 ft | 450 kts | 176° |
| 2026-05-06 11:57 | 53.63774 | 13.33219 | 36358 ft | 450 kts | 176° |
| 2026-05-06 11:57 | 53.60653 | 13.33557 | 36537 ft | 450 kts | 176° |
| 2026-05-06 11:57 | 53.57565 | 13.33893 | 36719 ft | 450 kts | 176° |
| 2026-05-06 11:57 | 53.54440 | 13.34233 | 36896 ft | 450 kts | 176° |
| 2026-05-06 11:58 | 53.48179 | 13.34909 | 37010 ft | 452 kts | 176° |
| 2026-05-06 11:58 | 53.41904 | 13.35588 | 37009 ft | 452 kts | 176° |
| 2026-05-06 11:59 | 53.35628 | 13.36256 | 37009 ft | 452 kts | 176° |
| 2026-05-06 11:59 | 53.29352 | 13.36924 | 37009 ft | 452 kts | 176° |
| 2026-05-06 12:00 | 53.23076 | 13.37600 | 37009 ft | 452 kts | 176° |
| 2026-05-06 12:00 | 53.16804 | 13.38265 | 37011 ft | 452 kts | 176° |
| 2026-05-06 12:01 | 53.10532 | 13.38921 | 37013 ft | 452 kts | 176° |
| 2026-05-06 12:01 | 53.04259 | 13.39586 | 37013 ft | 451 kts | 176° |
| 2026-05-06 12:02 | 52.97990 | 13.40250 | 37012 ft | 451 kts | 176° |
| 2026-05-06 12:02 | 52.91716 | 13.40905 | 37013 ft | 452 kts | 176° |
| 2026-05-06 12:03 | 52.85443 | 13.41558 | 37016 ft | 452 kts | 176° |
| 2026-05-06 12:03 | 52.79166 | 13.42217 | 37019 ft | 452 kts | 176° |
| 2026-05-06 12:04 | 52.72886 | 13.42877 | 37019 ft | 452 kts | 176° |
| 2026-05-06 12:04 | 52.66654 | 13.43534 | 37018 ft | 452 kts | 176° |
| 2026-05-06 12:05 | 52.60380 | 13.44173 | 37017 ft | 452 kts | 176° |
| 2026-05-06 12:05 | 52.54107 | 13.44816 | 37016 ft | 451 kts | 176° |
| 2026-05-06 12:06 | 52.47836 | 13.45464 | 37015 ft | 451 kts | 176° |
| 2026-05-06 12:06 | 52.41557 | 13.46107 | 37016 ft | 452 kts | 176° |
| 2026-05-06 12:07 | 52.35280 | 13.46748 | 37018 ft | 452 kts | 176° |
| 2026-05-06 12:07 | 52.29004 | 13.47374 | 37020 ft | 452 kts | 176° |
| 2026-05-06 12:08 | 52.22720 | 13.48007 | 37022 ft | 452 kts | 176° |
| 2026-05-06 12:08 | 52.16434 | 13.48658 | 37022 ft | 452 kts | 176° |
| 2026-05-06 12:09 | 52.10155 | 13.49305 | 37023 ft | 452 kts | 176° |
| 2026-05-06 12:09 | 52.03872 | 13.49934 | 37022 ft | 452 kts | 176° |
| 2026-05-06 12:10 | 51.97593 | 13.50560 | 37020 ft | 452 kts | 176° |
| 2026-05-06 12:10 | 51.91315 | 13.51186 | 37018 ft | 452 kts | 176° |
| 2026-05-06 12:11 | 51.85047 | 13.51815 | 37017 ft | 452 kts | 176° |
| 2026-05-06 12:11 | 51.78763 | 13.52448 | 37015 ft | 452 kts | 176° |
| 2026-05-06 12:12 | 51.72532 | 13.53079 | 37014 ft | 452 kts | 176° |
| 2026-05-06 12:12 | 51.66251 | 13.53702 | 37013 ft | 452 kts | 176° |
| 2026-05-06 12:13 | 51.59975 | 13.54323 | 37013 ft | 452 kts | 176° |
| 2026-05-06 12:13 | 51.53699 | 13.54940 | 37015 ft | 452 kts | 176° |
| 2026-05-06 12:14 | 51.47417 | 13.55551 | 37016 ft | 452 kts | 176° |
| 2026-05-06 12:14 | 51.41133 | 13.56169 | 37020 ft | 453 kts | 176° |
| 2026-05-06 12:15 | 51.34843 | 13.56787 | 37022 ft | 453 kts | 176° |
| 2026-05-06 12:15 | 51.28553 | 13.57402 | 37022 ft | 453 kts | 176° |
| 2026-05-06 12:16 | 51.22270 | 13.58014 | 37020 ft | 452 kts | 176° |
| 2026-05-06 12:16 | 51.15977 | 13.58615 | 37019 ft | 453 kts | 176° |
| 2026-05-06 12:17 | 51.09686 | 13.59217 | 37020 ft | 452 kts | 176° |
| 2026-05-06 12:17 | 51.03400 | 13.59826 | 37017 ft | 453 kts | 176° |
| 2026-05-06 12:18 | 50.97109 | 13.60438 | 37014 ft | 453 kts | 176° |
| 2026-05-06 12:18 | 50.90814 | 13.61037 | 37011 ft | 453 kts | 176° |
| 2026-05-06 12:19 | 50.84507 | 13.61644 | 37010 ft | 454 kts | 176° |
| 2026-05-06 12:19 | 50.78195 | 13.62247 | 37009 ft | 455 kts | 176° |
| 2026-05-06 12:20 | 50.71873 | 13.62407 | 37005 ft | 455 kts | 187° |
| 2026-05-06 12:20 | 50.65799 | 13.60011 | 37002 ft | 454 kts | 198° |
| 2026-05-06 12:21 | 50.59778 | 13.56986 | 37005 ft | 454 kts | 198° |
| 2026-05-06 12:21 | 50.53753 | 13.53990 | 37018 ft | 454 kts | 198° |
| 2026-05-06 12:22 | 50.47735 | 13.51009 | 37021 ft | 453 kts | 198° |
| 2026-05-06 12:22 | 50.41718 | 13.48036 | 37021 ft | 453 kts | 198° |
| 2026-05-06 12:23 | 50.35703 | 13.45071 | 37023 ft | 453 kts | 198° |
| 2026-05-06 12:23 | 50.29684 | 13.42102 | 37024 ft | 453 kts | 198° |
| 2026-05-06 12:24 | 50.23673 | 13.39140 | 37022 ft | 453 kts | 198° |
| 2026-05-06 12:24 | 50.17663 | 13.36203 | 37018 ft | 453 kts | 198° |
| 2026-05-06 12:25 | 50.11652 | 13.33265 | 37015 ft | 453 kts | 198° |
| 2026-05-06 12:25 | 50.05628 | 13.30324 | 37010 ft | 454 kts | 198° |
| 2026-05-06 12:26 | 49.99601 | 13.27395 | 37013 ft | 454 kts | 198° |
| 2026-05-06 12:26 | 49.93570 | 13.24465 | 37014 ft | 454 kts | 198° |
| 2026-05-06 12:27 | 49.87533 | 13.21545 | 37016 ft | 454 kts | 197° |
| 2026-05-06 12:27 | 49.81530 | 13.18661 | 37019 ft | 455 kts | 197° |
| 2026-05-06 12:28 | 49.75489 | 13.15757 | 37023 ft | 454 kts | 197° |
| 2026-05-06 12:28 | 49.72428 | 13.14287 | 36911 ft | 455 kts | 197° |
| 2026-05-06 12:28 | 49.69415 | 13.12841 | 36677 ft | 453 kts | 197° |
| 2026-05-06 12:29 | 49.66442 | 13.11413 | 36427 ft | 453 kts | 197° |
| 2026-05-06 12:29 | 49.63437 | 13.09976 | 36178 ft | 453 kts | 197° |
| 2026-05-06 12:29 | 49.60426 | 13.08541 | 35930 ft | 453 kts | 197° |
| 2026-05-06 12:29 | 49.57417 | 13.07107 | 35680 ft | 453 kts | 197° |
| 2026-05-06 12:30 | 49.54406 | 13.05671 | 35431 ft | 453 kts | 197° |
| 2026-05-06 12:30 | 49.51386 | 13.04232 | 35181 ft | 454 kts | 197° |
| 2026-05-06 12:30 | 49.48369 | 13.02799 | 34931 ft | 455 kts | 197° |
| 2026-05-06 12:30 | 49.45342 | 13.01361 | 34682 ft | 455 kts | 197° |
| 2026-05-06 12:31 | 49.42324 | 12.99881 | 34428 ft | 456 kts | 201° |
| 2026-05-06 12:31 | 49.39427 | 12.97918 | 34183 ft | 456 kts | 206° |
| 2026-05-06 12:31 | 49.36574 | 12.95828 | 33890 ft | 456 kts | 206° |
| 2026-05-06 12:31 | 49.34662 | 12.94431 | 33261 ft | 459 kts | 206° |
| 2026-05-06 12:32 | 49.31778 | 12.92329 | 32245 ft | 462 kts | 205° |
| 2026-05-06 12:32 | 49.28857 | 12.90209 | 31183 ft | 465 kts | 205° |
| 2026-05-06 12:32 | 49.25915 | 12.88080 | 30141 ft | 467 kts | 205° |
| 2026-05-06 12:32 | 49.22972 | 12.85951 | 29006 ft | 469 kts | 205° |
| 2026-05-06 12:33 | 49.20010 | 12.83806 | 27853 ft | 472 kts | 205° |
| 2026-05-06 12:33 | 49.17074 | 12.81678 | 27248 ft | 462 kts | 206° |
| 2026-05-06 12:33 | 49.14188 | 12.79581 | 26485 ft | 456 kts | 206° |
| 2026-05-06 12:33 | 49.11340 | 12.77515 | 25753 ft | 451 kts | 205° |
| 2026-05-06 12:34 | 49.08521 | 12.75478 | 25029 ft | 446 kts | 205° |
| 2026-05-06 12:34 | 49.05736 | 12.73468 | 24312 ft | 441 kts | 205° |
| 2026-05-06 12:34 | 49.02977 | 12.71478 | 23621 ft | 436 kts | 205° |
| 2026-05-06 12:34 | 49.00248 | 12.69512 | 22945 ft | 432 kts | 205° |
| 2026-05-06 12:35 | 48.97546 | 12.67574 | 22291 ft | 427 kts | 205° |
| 2026-05-06 12:35 | 48.94870 | 12.65667 | 21677 ft | 422 kts | 205° |
| 2026-05-06 12:35 | 48.92223 | 12.63785 | 21078 ft | 418 kts | 205° |
| 2026-05-06 12:35 | 48.89693 | 12.61688 | 20497 ft | 412 kts | 217° |
| 2026-05-06 12:36 | 48.87692 | 12.58631 | 19927 ft | 407 kts | 233° |
| 2026-05-06 12:36 | 48.86031 | 12.55164 | 19353 ft | 404 kts | 234° |
| 2026-05-06 12:36 | 48.84416 | 12.51723 | 18781 ft | 401 kts | 234° |
| 2026-05-06 12:36 | 48.82797 | 12.48272 | 18205 ft | 398 kts | 234° |
| 2026-05-06 12:37 | 48.81221 | 12.44913 | 17631 ft | 395 kts | 234° |
| 2026-05-06 12:37 | 48.79633 | 12.41530 | 17058 ft | 393 kts | 234° |
| 2026-05-06 12:37 | 48.77813 | 12.38467 | 16476 ft | 390 kts | 219° |
| 2026-05-06 12:37 | 48.75619 | 12.36070 | 15901 ft | 388 kts | 215° |
| 2026-05-06 12:38 | 48.73404 | 12.33758 | 15332 ft | 385 kts | 214° |
| 2026-05-06 12:38 | 48.71225 | 12.31492 | 14742 ft | 376 kts | 214° |
| 2026-05-06 12:38 | 48.69083 | 12.29267 | 14167 ft | 372 kts | 214° |
| 2026-05-06 12:38 | 48.66956 | 12.27061 | 13594 ft | 369 kts | 214° |
| 2026-05-06 12:39 | 48.64847 | 12.24873 | 13012 ft | 366 kts | 214° |
| 2026-05-06 12:39 | 48.62770 | 12.22722 | 12441 ft | 363 kts | 214° |
| 2026-05-06 12:39 | 48.60694 | 12.20574 | 11871 ft | 362 kts | 214° |
| 2026-05-06 12:39 | 48.58625 | 12.18434 | 11296 ft | 359 kts | 214° |
| 2026-05-06 12:40 | 48.56609 | 12.16260 | 11033 ft | 355 kts | 221° |
| 2026-05-06 12:40 | 48.55077 | 12.13383 | 10881 ft | 353 kts | 243° |
| 2026-05-06 12:40 | 48.54240 | 12.09914 | 10739 ft | 352 kts | 254° |
| 2026-05-06 12:40 | 48.53575 | 12.06358 | 10584 ft | 352 kts | 255° |
| 2026-05-06 12:41 | 48.52921 | 12.02808 | 10441 ft | 346 kts | 255° |
| 2026-05-06 12:41 | 48.52292 | 11.99387 | 10279 ft | 332 kts | 255° |
| 2026-05-06 12:41 | 48.51689 | 11.96104 | 10126 ft | 318 kts | 255° |
| 2026-05-06 12:41 | 48.51109 | 11.92950 | 9975 ft | 306 kts | 255° |
| 2026-05-06 12:42 | 48.50550 | 11.89909 | 9824 ft | 295 kts | 255° |
| 2026-05-06 12:42 | 48.50010 | 11.86976 | 9675 ft | 289 kts | 255° |
| 2026-05-06 12:42 | 48.49472 | 11.84059 | 9522 ft | 287 kts | 255° |
| 2026-05-06 12:42 | 48.48938 | 11.81159 | 9374 ft | 286 kts | 255° |
| 2026-05-06 12:43 | 48.48405 | 11.78271 | 9222 ft | 286 kts | 255° |
| 2026-05-06 12:43 | 48.47874 | 11.75391 | 9071 ft | 285 kts | 255° |
| 2026-05-06 12:43 | 48.47350 | 11.72553 | 8922 ft | 284 kts | 255° |
| 2026-05-06 12:43 | 48.46822 | 11.69698 | 8772 ft | 284 kts | 255° |
| 2026-05-06 12:44 | 48.46295 | 11.66841 | 8621 ft | 283 kts | 255° |
| 2026-05-06 12:44 | 48.45768 | 11.63990 | 8470 ft | 282 kts | 255° |
| 2026-05-06 12:44 | 48.45239 | 11.61168 | 8318 ft | 278 kts | 254° |
| 2026-05-06 12:44 | 48.44713 | 11.58362 | 8168 ft | 278 kts | 254° |
| 2026-05-06 12:45 | 48.44190 | 11.55569 | 8019 ft | 278 kts | 255° |
| 2026-05-06 12:45 | 48.43668 | 11.52777 | 7869 ft | 277 kts | 254° |
| 2026-05-06 12:45 | 48.42620 | 11.47189 | 7568 ft | 276 kts | 254° |
| 2026-05-06 12:46 | 48.42098 | 11.44410 | 7256 ft | 274 kts | 254° |
| 2026-05-06 12:46 | 48.41585 | 11.41693 | 6754 ft | 265 kts | 253° |
| 2026-05-06 12:46 | 48.40774 | 11.39292 | 6256 ft | 256 kts | 228° |
| 2026-05-06 12:46 | 48.39336 | 11.37832 | 5754 ft | 250 kts | 198° |
| 2026-05-06 12:47 | 48.37619 | 11.37588 | 5252 ft | 248 kts | 176° |
| 2026-05-06 12:47 | 48.35991 | 11.38367 | 4752 ft | 248 kts | 146° |
| 2026-05-06 12:47 | 48.34845 | 11.40278 | 4247 ft | 251 kts | 120° |
| 2026-05-06 12:47 | 48.34075 | 11.42602 | 4059 ft | 242 kts | 115° |
| 2026-05-06 12:48 | 48.33383 | 11.44887 | 4071 ft | 240 kts | 115° |
| 2026-05-06 12:48 | 48.32699 | 11.47175 | 4071 ft | 240 kts | 114° |
| 2026-05-06 12:48 | 48.32158 | 11.49531 | 4065 ft | 239 kts | 96° |
| 2026-05-06 12:48 | 48.32232 | 11.52021 | 4071 ft | 240 kts | 83° |
| 2026-05-06 12:49 | 48.32438 | 11.54477 | 4062 ft | 240 kts | 82° |
| 2026-05-06 12:49 | 48.32642 | 11.56972 | 3847 ft | 240 kts | 83° |
| 2026-05-06 12:49 | 48.32838 | 11.59429 | 3548 ft | 231 kts | 83° |
| 2026-05-06 12:49 | 48.33021 | 11.61758 | 3252 ft | 218 kts | 83° |
| 2026-05-06 12:50 | 48.33191 | 11.63916 | 3008 ft | 198 kts | 83° |
| 2026-05-06 12:50 | 48.33345 | 11.65879 | 2756 ft | 178 kts | 83° |
| 2026-05-06 12:50 | 48.33483 | 11.67640 | 2504 ft | 162 kts | 82° |
| 2026-05-06 12:50 | 48.33611 | 11.69258 | 2278 ft | 152 kts | 83° |
| 2026-05-06 12:51 | 48.33737 | 11.70809 | 2015 ft | 146 kts | 82° |
| 2026-05-06 12:51 | 48.33854 | 11.72315 | 1842 ft | 144 kts | 83° |
| 2026-05-06 12:51 | 48.33970 | 11.73810 | 1656 ft | 143 kts | 83° |
| 2026-05-06 12:51 | 48.34085 | 11.75290 | 1483 ft | 142 kts | 83° |
| 2026-05-06 12:52 | 48.34183 | 11.76618 | 1468 ft | 105 kts | 84° |
| 2026-05-06 12:52 | 48.34230 | 11.77229 | 1469 ft | 78 kts | 83° |
| 2026-05-06 12:52 | 48.34269 | 11.77726 | 1466 ft | 46 kts | 84° |
| 2026-05-06 12:52 | 48.34323 | 11.78178 | 1464 ft | 43 kts | 73° |
| 2026-05-06 12:53 | 48.34459 | 11.78514 | 1460 ft | 14 kts | 52° |
| 2026-05-06 12:53 | 48.34507 | 11.78611 | 1460 ft | 11 kts | 54° |
| 2026-05-06 12:53 | 48.34554 | 11.78708 | 1467 ft | 13 kts | 52° |
| 2026-05-06 12:53 | 48.34633 | 11.78903 | 1464 ft | 27 kts | 77° |
| 2026-05-06 12:54 | 48.34653 | 11.79191 | 1463 ft | 29 kts | 83° |
| 2026-05-06 12:54 | 48.34673 | 11.79448 | 1466 ft | 18 kts | 83° |
| 2026-05-06 12:54 | 48.34744 | 11.79552 | 1467 ft | 16 kts | 4° |
| 2026-05-06 12:54 | 48.34862 | 11.79557 | 1467 ft | 18 kts | 354° |
| 2026-05-06 12:55 | 48.34906 | 11.79550 | 1467 ft | 0 kts | 353° |
| 2026-05-06 12:55 | 48.34906 | 11.79549 | 1467 ft | 1 kts | 353° |
| 2026-05-06 12:55 | 48.34991 | 11.79534 | 1462 ft | 19 kts | 353° |
| 2026-05-06 12:55 | 48.35053 | 11.79523 | 1464 ft | 6 kts | 350° |
| 2026-05-06 12:56 | 48.35066 | 11.79407 | 1466 ft | 17 kts | 263° |
| 2026-05-06 12:56 | 48.35062 | 11.79365 | 1467 ft | 0 kts | 262° |